createdAt,value
2018-10-11T00:01:05.610Z,97396.17
2018-10-11T00:03:33.388Z,97397.52
2018-10-11T00:06:01.173Z,97397.29
2018-10-11T00:08:28.982Z,97396.17
2018-10-11T00:10:56.828Z,97391.35
2018-10-11T00:13:24.642Z,97387.89
2018-10-11T00:15:52.431Z,97382.98
2018-10-11T00:18:20.240Z,97386.78
2018-10-11T00:20:48.033Z,97384.64
2018-10-11T00:23:15.815Z,97384.64
2018-10-11T00:25:43.593Z,97386.30
2018-10-11T00:28:11.386Z,97382.27
2018-10-11T00:30:39.211Z,97386.30
2018-10-11T00:33:06.981Z,97385.75
2018-10-11T00:35:34.749Z,97376.90
2018-10-11T00:38:02.542Z,97376.36
2018-10-11T00:40:30.328Z,97371.53
2018-10-11T00:42:58.125Z,97368.08
2018-10-11T00:45:26.161Z,97371.84
2018-10-11T00:47:53.912Z,97372.10
2018-10-11T00:50:21.696Z,97374.78
2018-10-11T00:52:49.501Z,97377.47
2018-10-11T00:55:17.340Z,97382.04
2018-10-11T00:57:45.095Z,97370.50
2018-10-11T01:00:12.863Z,97363.79
2018-10-11T01:02:40.652Z,97361.91
2018-10-11T01:05:08.458Z,97365.93
2018-10-11T01:07:36.228Z,97364.05
2018-10-11T01:10:04.028Z,97355.73
2018-10-11T01:12:31.821Z,97353.84
2018-10-11T01:14:59.594Z,97354.65
2018-10-11T01:17:27.375Z,97353.30
2018-10-11T01:19:55.189Z,97353.84
2018-10-11T01:22:22.973Z,97353.05
2018-10-11T01:24:50.775Z,97350.14
2018-10-11T01:27:18.556Z,97344.77
2018-10-11T01:29:46.396Z,97348.56
2018-10-11T01:32:14.170Z,97345.66
2018-10-11T01:34:41.920Z,97349.34
2018-10-11T01:37:09.741Z,97343.73
2018-10-11T01:39:37.537Z,97352.02
2018-10-11T01:42:05.330Z,97347.77
2018-10-11T01:44:33.120Z,97343.20
2018-10-11T01:47:00.933Z,97345.08
2018-10-11T01:49:28.713Z,97345.08
2018-10-11T01:51:56.474Z,97333.57
2018-10-11T01:54:24.317Z,97338.94
2018-10-11T01:56:53.098Z,97246.74
2018-10-11T01:59:20.842Z,97336.80
2018-10-11T02:01:48.644Z,97334.97
2018-10-11T02:04:16.451Z,97326.92
2018-10-11T02:06:44.397Z,97326.60
2018-10-11T02:09:12.204Z,97331.74
2018-10-11T02:11:40.003Z,97326.92
2018-10-11T02:14:07.817Z,97333.63
2018-10-11T02:16:35.636Z,97333.63
2018-10-11T02:19:03.441Z,97332.06
2018-10-11T02:21:31.206Z,97326.92
2018-10-11T02:23:58.978Z,97327.72
2018-10-11T02:26:26.744Z,97321.55
2018-10-11T02:28:54.540Z,97327.48
2018-10-11T02:31:22.312Z,97335.23
2018-10-11T02:33:50.123Z,97341.69
2018-10-11T02:36:17.941Z,97342.00
2018-10-11T02:38:45.716Z,97343.02
2018-10-11T02:41:13.566Z,97340.91
2018-10-11T02:43:41.357Z,97343.02
2018-10-11T02:46:09.156Z,97334.74
2018-10-11T02:48:36.926Z,97337.42
2018-10-11T02:51:04.774Z,97330.72
2018-10-11T02:53:32.568Z,97331.83
2018-10-11T02:56:00.333Z,97323.52
2018-10-11T02:58:33.649Z,97316.58
2018-10-11T03:01:01.441Z,97309.87
2018-10-11T03:03:29.614Z,97306.07
2018-10-11T03:05:58.865Z,97306.07
2018-10-11T03:08:27.153Z,97314.44
2018-10-11T03:10:55.023Z,97317.37
2018-10-11T03:13:22.774Z,97321.41
2018-10-11T03:15:50.573Z,97326.69
2018-10-11T03:18:18.368Z,97331.34
2018-10-11T03:20:46.338Z,97323.52
2018-10-11T03:23:14.888Z,97322.17
2018-10-11T03:25:44.137Z,97324.31
2018-10-11T03:28:13.357Z,97320.29
2018-10-11T03:30:41.472Z,97321.09
2018-10-11T03:33:09.244Z,97315.72
2018-10-11T03:35:37.038Z,97315.47
2018-10-11T03:38:04.895Z,97319.75
2018-10-11T03:40:32.646Z,97325.66
2018-10-11T03:43:00.440Z,97324.31
2018-10-11T03:45:28.212Z,97322.98
2018-10-11T03:47:56.178Z,97318.64
2018-10-11T03:50:24.180Z,97323.47
2018-10-11T03:52:51.945Z,97322.17
2018-10-11T03:55:19.719Z,97319.49
2018-10-11T03:57:47.471Z,97320.29
2018-10-11T04:00:15.182Z,97319.17
2018-10-11T04:02:42.953Z,97316.58
2018-10-11T04:05:10.925Z,97315.47
2018-10-11T04:07:38.702Z,97327.00
2018-10-11T04:10:06.502Z,97322.98
2018-10-11T04:12:34.256Z,97329.45
2018-10-11T04:15:01.925Z,97334.83
2018-10-11T04:17:29.633Z,97331.26
2018-10-11T04:19:57.782Z,97330.48
2018-10-11T04:22:25.447Z,97330.55
2018-10-11T04:24:53.115Z,97332.69
2018-10-11T04:27:20.763Z,97333.17
2018-10-11T04:29:48.437Z,97332.45
2018-10-11T04:32:16.139Z,97337.73
2018-10-11T04:34:43.905Z,97339.63
2018-10-11T04:37:11.788Z,97340.73
2018-10-11T04:39:39.450Z,97335.37
2018-10-11T04:42:07.477Z,97336.94
2018-10-11T04:44:36.130Z,97335.14
2018-10-11T04:47:04.387Z,97340.25
2018-10-11T04:49:32.106Z,97335.91
2018-10-11T04:51:59.789Z,97336.48
2018-10-11T04:54:27.557Z,97341.05
2018-10-11T04:56:55.276Z,97342.16
2018-10-11T04:59:22.978Z,97348.30
2018-10-11T05:01:50.700Z,97345.08
2018-10-11T05:04:18.451Z,97346.65
2018-10-11T05:06:46.148Z,97347.84
2018-10-11T05:09:13.814Z,97350.53
2018-10-11T05:11:42.252Z,97352.33
2018-10-11T05:14:10.985Z,97354.56
2018-10-11T05:16:38.625Z,97356.44
2018-10-11T05:19:06.385Z,97358.58
2018-10-11T05:21:34.216Z,97349.73
2018-10-11T05:24:01.852Z,97346.25
2018-10-11T05:26:29.531Z,97347.05
2018-10-11T05:28:57.237Z,97360.16
2018-10-11T05:31:24.979Z,97356.44
2018-10-11T05:33:53.568Z,97369.32
2018-10-11T05:36:21.262Z,97367.98
2018-10-11T05:38:48.997Z,97369.38
2018-10-11T05:41:16.765Z,97375.86
2018-10-11T05:43:44.585Z,97381.53
2018-10-11T05:46:17.824Z,97381.53
2018-10-11T05:48:45.502Z,97380.42
2018-10-11T05:51:13.177Z,97384.77
2018-10-11T05:53:40.881Z,97382.65
2018-10-11T05:56:08.564Z,97386.67
2018-10-11T05:58:36.282Z,97391.73
2018-10-11T06:01:04.007Z,97391.73
2018-10-11T06:03:31.715Z,97383.98
2018-10-11T06:05:59.454Z,97386.91
2018-10-11T06:08:27.105Z,97384.53
2018-10-11T06:10:54.778Z,97389.05
2018-10-11T06:13:22.610Z,97382.08
2018-10-11T06:15:50.858Z,97385.02
2018-10-11T06:18:18.614Z,97378.63
2018-10-11T06:20:46.332Z,97386.10
2018-10-11T06:23:14.025Z,97393.38
2018-10-11T06:25:41.679Z,97385.88
2018-10-11T06:28:09.446Z,97389.90
2018-10-11T06:30:37.545Z,97369.77
2018-10-11T06:33:05.246Z,97373.80
2018-10-11T06:35:32.998Z,97371.34
2018-10-11T06:38:00.744Z,97371.91
2018-10-11T06:40:28.386Z,97369.77
2018-10-11T06:42:56.006Z,97375.05
2018-10-11T06:45:23.632Z,97385.33
2018-10-11T06:47:52.841Z,97378.05
2018-10-11T06:50:20.739Z,97377.51
2018-10-11T06:52:48.387Z,97378.05
2018-10-11T06:55:16.030Z,97386.59
2018-10-11T06:57:43.659Z,97380.59
2018-10-11T07:00:11.361Z,97385.73
2018-10-11T07:02:38.990Z,97386.28
2018-10-11T07:05:06.645Z,97389.91
2018-10-11T07:07:34.281Z,97389.45
2018-10-11T07:10:01.921Z,97384.31
2018-10-11T07:12:29.554Z,97380.69
2018-10-11T07:14:57.194Z,97385.92
2018-10-11T07:17:24.866Z,97393.32
2018-10-11T07:19:52.497Z,97396.27
2018-10-11T07:22:20.125Z,97391.98
2018-10-11T07:24:47.785Z,97388.35
2018-10-11T07:27:15.405Z,97388.84
2018-10-11T07:29:43.041Z,97383.98
2018-10-11T07:32:10.706Z,97387.44
2018-10-11T07:34:38.374Z,97392.81
2018-10-11T07:37:06.025Z,97398.98
2018-10-11T07:39:33.644Z,97403.73
2018-10-11T07:42:01.274Z,97400.64
2018-10-11T07:44:28.897Z,97403.59
2018-10-11T07:46:56.612Z,97406.02
2018-10-11T07:49:24.218Z,97404.44
2018-10-11T07:51:52.166Z,97406.73
2018-10-11T07:54:19.809Z,97406.67
2018-10-11T07:56:47.441Z,97405.64
2018-10-11T07:59:15.159Z,97405.78
2018-10-11T08:01:42.794Z,97403.41
2018-10-11T08:04:10.429Z,97402.33
2018-10-11T08:06:38.130Z,97401.93
2018-10-11T08:09:06.909Z,97401.30
2018-10-11T08:11:34.680Z,97403.41
2018-10-11T08:14:02.214Z,97407.44
2018-10-11T08:16:29.985Z,97403.67
2018-10-11T08:18:57.725Z,97394.41
2018-10-11T08:21:25.246Z,97399.16
2018-10-11T08:23:52.922Z,97408.55
2018-10-11T08:26:20.896Z,97415.75
2018-10-11T08:28:48.194Z,97418.13
2018-10-11T08:31:15.854Z,97415.44
2018-10-11T08:33:43.509Z,97411.09
2018-10-11T08:36:11.154Z,97405.89
2018-10-11T08:38:38.860Z,97406.92
2018-10-11T08:41:06.747Z,97408.17
2018-10-11T08:43:34.452Z,97408.34
2018-10-11T08:46:02.102Z,97409.74
2018-10-11T08:48:29.821Z,97411.26
2018-10-11T08:50:57.530Z,97404.22
2018-10-11T08:53:25.175Z,97394.27
2018-10-11T08:55:52.839Z,97401.98
2018-10-11T08:58:20.486Z,97402.79
2018-10-11T09:00:49.135Z,97402.79
2018-10-11T09:03:16.889Z,97402.16
2018-10-11T09:05:44.709Z,97398.92
2018-10-11T09:08:12.341Z,97402.32
2018-10-11T09:10:39.972Z,97401.20
2018-10-11T09:13:07.632Z,97400.98
2018-10-11T09:15:35.258Z,97402.23
2018-10-11T09:18:02.897Z,97400.34
2018-10-11T09:20:30.516Z,97406.75
2018-10-11T09:22:58.187Z,97403.58
2018-10-11T09:25:25.818Z,97395.52
2018-10-11T09:27:53.477Z,97395.99
2018-10-11T09:30:21.209Z,97403.42
2018-10-11T09:32:48.769Z,97397.02
2018-10-11T09:35:16.411Z,97397.02
2018-10-11T09:37:44.089Z,97385.95
2018-10-11T09:40:11.726Z,97389.73
2018-10-11T09:42:39.367Z,97388.06
2018-10-11T09:45:07.420Z,97389.73
2018-10-11T09:47:35.095Z,97387.04
2018-10-11T09:50:02.774Z,97390.75
2018-10-11T09:52:30.417Z,97382.46
2018-10-11T09:54:58.142Z,97389.58
2018-10-11T09:57:29.811Z,97387.52
2018-10-11T09:59:58.004Z,97391.78
2018-10-11T10:02:26.473Z,97391.23
2018-10-11T10:04:55.643Z,97385.38
2018-10-11T10:07:23.382Z,97388.23
2018-10-11T10:09:51.284Z,97386.88
2018-10-11T10:12:19.121Z,97388.23
2018-10-11T10:14:47.555Z,97391.14
2018-10-11T10:17:15.299Z,97398.98
2018-10-11T10:19:43.703Z,97399.78
2018-10-11T10:22:11.505Z,97394.95
2018-10-11T10:24:39.789Z,97390.92
2018-10-11T10:27:07.103Z,97392.74
2018-10-11T10:29:35.226Z,97391.94
2018-10-11T10:32:04.428Z,97391.72
2018-10-11T10:34:32.257Z,97388.45
2018-10-11T10:37:00.052Z,97389.80
2018-10-11T10:39:27.814Z,97389.80
2018-10-11T10:41:55.566Z,97385.77
2018-10-11T10:44:23.308Z,97390.38
2018-10-11T10:46:51.137Z,97379.30
2018-10-11T10:49:19.020Z,97377.64
2018-10-11T10:51:46.833Z,97374.15
2018-10-11T10:54:20.027Z,97377.64
2018-10-11T10:56:47.614Z,97378.66
2018-10-11T10:59:15.429Z,97374.86
2018-10-11T11:01:43.252Z,97381.27
2018-10-11T11:04:11.098Z,97371.95
2018-10-11T11:06:38.773Z,97372.72
2018-10-11T11:09:08.309Z,97367.11
2018-10-11T11:11:36.027Z,97370.83
2018-10-11T11:14:03.744Z,97369.48
2018-10-11T11:16:31.482Z,97364.64
2018-10-11T11:18:59.241Z,97367.66
2018-10-11T11:21:26.888Z,97367.02
2018-10-11T11:23:54.634Z,97365.22
2018-10-11T11:26:22.354Z,97363.30
2018-10-11T11:28:50.118Z,97364.10
2018-10-11T11:31:17.798Z,97363.87
2018-10-11T11:33:45.536Z,97361.19
2018-10-11T11:36:13.250Z,97361.19
2018-10-11T11:38:40.969Z,97363.78
2018-10-11T11:41:08.712Z,97361.42
2018-10-11T11:43:36.401Z,97357.16
2018-10-11T11:46:04.135Z,97357.61
2018-10-11T11:48:31.971Z,97353.83
2018-10-11T11:50:59.665Z,97358.41
2018-10-11T11:53:27.340Z,97354.70
2018-10-11T11:55:55.028Z,97348.45
2018-10-11T11:58:22.744Z,97350.02
2018-10-11T12:00:50.473Z,97350.02
2018-10-11T12:03:18.149Z,97354.31
2018-10-11T12:05:45.829Z,97348.67
2018-10-11T12:08:13.597Z,97346.25
2018-10-11T12:10:41.323Z,97355.88
2018-10-11T12:13:10.161Z,97354.31
2018-10-11T12:15:38.844Z,97353.52
2018-10-11T12:18:08.254Z,97353.52
2018-10-11T12:20:37.283Z,97352.11
2018-10-11T12:23:05.967Z,97351.30
2018-10-11T12:25:33.949Z,97350.50
2018-10-11T12:28:01.716Z,97355.56
2018-10-11T12:30:29.553Z,97352.65
2018-10-11T12:32:57.289Z,97351.53
2018-10-11T12:35:25.482Z,97350.12
2018-10-11T12:37:53.203Z,97352.80
2018-10-11T12:40:21.017Z,97347.75
2018-10-11T12:42:48.995Z,97344.74
2018-10-11T12:45:17.147Z,97335.78
2018-10-11T12:47:44.990Z,97343.30
2018-10-11T12:50:13.365Z,97341.64
2018-10-11T12:52:41.348Z,97329.31
2018-10-11T12:55:09.090Z,97344.33
2018-10-11T12:57:37.153Z,97339.17
2018-10-11T13:00:05.430Z,97338.47
2018-10-11T13:02:33.220Z,97335.45
2018-10-11T13:05:00.914Z,97341.41
2018-10-11T13:07:28.568Z,97336.80
2018-10-11T13:09:56.227Z,97341.09
2018-10-11T13:12:23.924Z,97342.66
2018-10-11T13:14:51.762Z,97339.97
2018-10-11T13:17:19.432Z,97337.76
2018-10-11T13:19:47.093Z,97335.07
2018-10-11T13:22:14.729Z,97333.25
2018-10-11T13:24:46.836Z,97330.02
2018-10-11T13:27:10.038Z,97330.78
2018-10-11T13:29:37.644Z,97337.19
2018-10-11T13:32:05.279Z,97340.45
2018-10-11T13:34:32.924Z,97338.78
2018-10-11T13:37:00.582Z,97328.03
2018-10-11T13:39:28.214Z,97331.81
2018-10-11T13:41:55.838Z,97333.63
2018-10-11T13:44:23.476Z,97333.09
2018-10-11T13:46:51.311Z,97339.23
2018-10-11T13:49:18.937Z,97334.66
2018-10-11T13:51:46.584Z,97341.05
2018-10-11T13:54:18.350Z,97329.75
2018-10-11T13:56:52.268Z,97338.05
2018-10-11T13:59:15.184Z,97331.86
2018-10-11T14:01:41.819Z,97334.33
2018-10-11T14:04:09.478Z,97335.45
2018-10-11T14:06:37.105Z,97334.11
2018-10-11T14:09:07.214Z,97329.43
2018-10-11T14:11:34.900Z,97329.43
2018-10-11T14:14:02.556Z,97330.30
2018-10-11T14:16:30.205Z,97331.64
2018-10-11T14:18:57.833Z,97326.27
2018-10-11T14:21:25.471Z,97329.17
2018-10-11T14:23:53.219Z,97325.40
2018-10-11T14:26:20.786Z,97330.52
2018-10-11T14:28:48.428Z,97324.05
2018-10-11T14:31:16.051Z,97326.74
2018-10-11T14:33:43.785Z,97327.83
2018-10-11T14:36:11.469Z,97322.71
2018-10-11T14:38:39.068Z,97321.43
2018-10-11T14:41:06.738Z,97319.45
2018-10-11T14:43:34.372Z,97321.36
2018-10-11T14:46:02.051Z,97325.40
2018-10-11T14:48:29.689Z,97322.71
2018-10-11T14:50:57.396Z,97325.40
2018-10-11T14:53:24.992Z,97321.43
2018-10-11T14:55:52.638Z,97327.83
2018-10-11T14:58:20.278Z,97324.92
2018-10-11T15:00:47.926Z,97326.48
2018-10-11T15:03:15.608Z,97327.06
2018-10-11T15:05:43.251Z,97325.40
2018-10-11T15:08:10.872Z,97321.11
2018-10-11T15:10:38.541Z,97325.94
2018-10-11T15:13:06.444Z,97327.06
2018-10-11T15:15:34.077Z,97332.13
2018-10-11T15:18:01.710Z,97333.21
2018-10-11T15:20:29.351Z,97332.67
2018-10-11T15:22:56.977Z,97341.05
2018-10-11T15:25:24.631Z,97337.56
2018-10-11T15:27:52.273Z,97344.61
2018-10-11T15:30:19.901Z,97341.92
2018-10-11T15:32:47.521Z,97337.12
2018-10-11T15:35:15.164Z,97337.66
2018-10-11T15:37:42.803Z,97329.59
2018-10-11T15:40:10.508Z,97324.77
2018-10-11T15:42:38.267Z,97325.56
2018-10-11T15:45:06.611Z,97325.88
2018-10-11T15:47:34.268Z,97329.59
2018-10-11T15:50:01.888Z,97329.82
2018-10-11T15:52:29.616Z,97332.83
2018-10-11T15:54:57.197Z,97333.41
2018-10-11T15:57:24.809Z,97331.81
2018-10-11T15:59:52.662Z,97332.38
2018-10-11T16:02:20.288Z,97331.58
2018-10-11T16:04:48.030Z,97337.06
2018-10-11T16:07:15.633Z,97331.91
2018-10-11T16:09:43.296Z,97337.50
2018-10-11T16:12:10.940Z,97345.12
2018-10-11T16:14:38.600Z,97349.70
2018-10-11T16:17:06.239Z,97354.77
2018-10-11T16:19:33.882Z,97353.09
2018-10-11T16:22:01.514Z,97355.56
2018-10-11T16:24:29.155Z,97361.48
2018-10-11T16:26:56.791Z,97359.66
2018-10-11T16:29:24.554Z,97368.52
2018-10-11T16:31:52.182Z,97366.63
2018-10-11T16:34:19.810Z,97369.07
2018-10-11T16:36:47.468Z,97375.47
2018-10-11T16:39:15.189Z,97379.59
2018-10-11T16:41:42.793Z,97376.69
2018-10-11T16:44:10.439Z,97387.13
2018-10-11T16:46:38.099Z,97382.38
2018-10-11T16:49:05.773Z,97383.73
2018-10-11T16:51:33.410Z,97385.94
2018-10-11T16:54:01.238Z,97390.77
2018-10-11T16:56:28.877Z,97394.86
2018-10-11T16:58:56.567Z,97399.16
2018-10-11T17:01:24.206Z,97395.13
2018-10-11T17:03:51.854Z,97395.34
2018-10-11T17:06:19.558Z,97401.05
2018-10-11T17:08:47.232Z,97403.50
2018-10-11T17:11:14.853Z,97413.69
2018-10-11T17:13:42.533Z,97412.59
2018-10-11T17:16:10.166Z,97412.66
2018-10-11T17:18:37.807Z,97415.34
2018-10-11T17:21:05.447Z,97416.86
2018-10-11T17:23:33.086Z,97409.91
2018-10-11T17:26:00.711Z,97409.42
2018-10-11T17:28:28.342Z,97406.58
2018-10-11T17:30:56.008Z,97409.72
2018-10-11T17:33:23.668Z,97413.14
2018-10-11T17:35:51.294Z,97414.00
2018-10-11T17:38:18.942Z,97406.58
2018-10-11T17:40:46.569Z,97411.16
2018-10-11T17:43:14.218Z,97399.59
2018-10-11T17:45:41.983Z,97407.66
2018-10-11T17:48:09.637Z,97402.92
2018-10-11T17:50:37.284Z,97403.63
2018-10-11T17:53:04.927Z,97407.34
2018-10-11T17:55:32.555Z,97405.14
2018-10-11T17:58:00.219Z,97407.59
2018-10-11T18:00:27.868Z,97412.98
2018-10-11T18:02:55.535Z,97412.49
2018-10-11T18:05:23.179Z,97415.89
2018-10-11T18:07:50.926Z,97412.49
2018-10-11T18:10:18.577Z,97414.32
2018-10-11T18:12:46.218Z,97418.09
2018-10-11T18:15:13.925Z,97414.64
2018-10-11T18:17:41.562Z,97419.70
2018-10-11T18:20:09.211Z,97429.11
2018-10-11T18:22:36.859Z,97434.55
2018-10-11T18:25:04.489Z,97438.27
2018-10-11T18:27:32.166Z,97430.20
2018-10-11T18:29:59.813Z,97439.86
2018-10-11T18:32:27.467Z,97444.44
2018-10-11T18:34:55.109Z,97448.56
2018-10-11T18:37:22.744Z,97450.04
2018-10-11T18:39:50.378Z,97444.44
2018-10-11T18:42:18.060Z,97445.56
2018-10-11T18:44:45.830Z,97452.34
2018-10-11T18:47:13.380Z,97443.64
2018-10-11T18:49:41.024Z,97447.45
2018-10-11T18:52:08.748Z,97453.05
2018-10-11T18:54:36.389Z,97450.93
2018-10-11T18:57:04.021Z,97455.60
2018-10-11T18:59:31.658Z,97460.08
2018-10-11T19:01:59.328Z,97462.23
2018-10-11T19:04:26.973Z,97463.03
2018-10-11T19:06:54.593Z,97460.66
2018-10-11T19:09:22.226Z,97464.92
2018-10-11T19:11:49.878Z,97465.14
2018-10-11T19:14:17.522Z,97460.08
2018-10-11T19:16:45.156Z,97463.09
2018-10-11T19:19:12.986Z,97465.55
2018-10-11T19:21:40.803Z,97469.27
2018-10-11T19:24:08.530Z,97470.93
2018-10-11T19:26:36.552Z,97476.79
2018-10-11T19:29:04.295Z,97482.94
2018-10-11T19:31:32.039Z,97488.63
2018-10-11T19:33:59.752Z,97483.25
2018-10-11T19:36:27.465Z,97485.08
2018-10-11T19:38:55.232Z,97478.91
2018-10-11T19:41:24.918Z,97481.91
2018-10-11T19:43:52.731Z,97487.28
2018-10-11T19:46:20.486Z,97488.41
2018-10-11T19:48:48.233Z,97483.25
2018-10-11T19:51:16.050Z,97486.26
2018-10-11T19:53:43.999Z,97489.75
2018-10-11T19:56:11.831Z,97494.89
2018-10-11T19:58:39.596Z,97500.30
2018-10-11T20:01:07.331Z,97500.35
2018-10-11T20:03:35.139Z,97496.95
2018-10-11T20:06:02.900Z,97504.30
2018-10-11T20:08:30.728Z,97503.41
2018-10-11T20:10:58.366Z,97513.63
2018-10-11T20:13:26.056Z,97505.88
2018-10-11T20:15:53.791Z,97507.22
2018-10-11T20:18:21.565Z,97504.94
2018-10-11T20:20:49.277Z,97506.28
2018-10-11T20:23:16.953Z,97507.31
2018-10-11T20:25:44.602Z,97504.05
2018-10-11T20:28:12.540Z,97507.05
2018-10-11T20:30:40.313Z,97514.03
2018-10-11T20:33:07.964Z,97513.55
2018-10-11T20:35:35.855Z,97514.09
2018-10-11T20:38:03.721Z,97515.69
2018-10-11T20:40:31.501Z,97517.34
2018-10-11T20:42:59.201Z,97518.69
2018-10-11T20:45:27.835Z,97521.61
2018-10-11T20:47:55.496Z,97521.92
2018-10-11T20:50:23.170Z,97526.19
2018-10-11T20:52:50.834Z,97527.47
2018-10-11T20:55:18.749Z,97510.86
2018-10-11T20:57:46.629Z,97526.44
2018-10-11T21:00:14.330Z,97529.76
2018-10-11T21:02:42.044Z,97530.78
2018-10-11T21:05:09.693Z,97536.16
2018-10-11T21:07:37.428Z,97536.48
2018-10-11T21:10:05.449Z,97538.05
2018-10-11T21:12:33.146Z,97539.70
2018-10-11T21:15:00.874Z,97535.91
2018-10-11T21:17:28.574Z,97545.08
2018-10-11T21:19:56.355Z,97541.85
2018-10-11T21:22:23.948Z,97542.08
2018-10-11T21:24:51.600Z,97540.97
2018-10-11T21:27:19.371Z,97540.73
2018-10-11T21:29:47.397Z,97546.11
2018-10-11T21:32:15.057Z,97547.14
2018-10-11T21:34:42.715Z,97547.69
2018-10-11T21:37:10.515Z,97544.14
2018-10-11T21:39:38.429Z,97538.77
2018-10-11T21:42:06.658Z,97541.68
2018-10-11T21:44:34.339Z,97539.88
2018-10-11T21:47:01.989Z,97543.42
2018-10-11T21:49:29.687Z,97544.45
2018-10-11T21:51:57.398Z,97540.20
2018-10-11T21:54:25.094Z,97547.95
2018-10-11T21:56:52.805Z,97546.34
2018-10-11T21:59:20.464Z,97546.11
2018-10-11T22:01:48.137Z,97546.92
2018-10-11T22:04:15.776Z,97551.72
2018-10-11T22:06:43.439Z,97550.95
2018-10-11T22:09:11.078Z,97558.21
2018-10-11T22:11:38.740Z,97562.02
2018-10-11T22:14:06.471Z,97560.36
2018-10-11T22:16:34.105Z,97561.70
2018-10-11T22:19:01.817Z,97562.24
2018-10-11T22:21:29.542Z,97568.73
2018-10-11T22:23:57.208Z,97581.38
2018-10-11T22:26:25.334Z,97580.57
2018-10-11T22:28:53.016Z,97602.08
2018-10-11T22:31:20.718Z,97614.25
2018-10-11T22:33:48.343Z,97606.99
2018-10-11T22:36:16.011Z,97579.92
2018-10-11T22:38:43.686Z,97594.90
2018-10-11T22:41:12.170Z,97606.99
2018-10-11T22:43:40.017Z,97610.77
2018-10-11T22:46:07.753Z,97605.39
2018-10-11T22:48:35.426Z,97612.37
2018-10-11T22:51:03.140Z,97608.08
2018-10-11T22:53:30.874Z,97609.42
2018-10-11T22:55:58.546Z,97611.56
2018-10-11T22:58:26.251Z,97611.48
2018-10-11T23:00:54.002Z,97618.83
2018-10-11T23:03:21.673Z,97608.34
2018-10-11T23:05:49.338Z,97608.88
2018-10-11T23:08:17.000Z,97611.56
2018-10-11T23:10:44.635Z,97612.11
2018-10-11T23:13:12.310Z,97615.05
2018-10-11T23:15:40.096Z,97619.62
2018-10-11T23:18:07.831Z,97619.09
2018-10-11T23:20:35.465Z,97622.86
2018-10-11T23:23:03.145Z,97621.52
2018-10-11T23:25:30.787Z,97623.66
2018-10-11T23:27:58.424Z,97626.89
2018-10-11T23:30:26.074Z,97626.89
2018-10-11T23:32:53.757Z,97622.63
2018-10-11T23:35:21.409Z,97625.00
2018-10-11T23:37:49.153Z,97625.31
2018-10-11T23:40:16.907Z,97623.17
2018-10-11T23:42:44.572Z,97633.92
2018-10-11T23:45:13.021Z,97636.06
2018-10-11T23:47:41.283Z,97635.58
2018-10-11T23:50:08.956Z,97646.33
2018-10-11T23:52:36.671Z,97645.25
2018-10-11T23:55:04.596Z,97642.88
2018-10-11T23:57:32.241Z,97647.44
2018-10-11T23:59:59.916Z,97656.85
